• Join FlightAware (Why Join?)
  • Login
  • US Flag 
05:08PM EDT


 

Airport Tracker/Info


-or-


 

Live Flight TrackerFlight Track Log ✈ N3746H ✈ 25-Apr-2013 ✈ KJFK - MDSD / SDQ

Flight Track Log - Related Links

Times and Time Zones

All times are in EDT time to prevent confusion due to time zone crossing. See the N3746H flight status page for this flight to view local times or setup timezone preferences in your user account.

Time Position Orientation Groundspeed Altitude Reporting Facility
EDT Latitude Longitude Course Direction KTS MPH feet Rate Location/Type
09:48AM 40.6167 -73.8667 128° Southeast 220 253 2,500  Level New York TRACON
09:50AM 40.4332 -73.4164 128° Southeast  Level FlightAware Approximate
09:51AM 40.3530 -73.2878 131° Southeast  Level FlightAware Approximate
09:51AM 40.5144 -73.7167 132° Southeast 295 339 8,600  Level New York Center
09:52AM 40.2726 -73.1596 128° Southeast  Level FlightAware Approximate
09:52AM 40.4792 -73.6278 118° Southeast 301 346 10,700  Level New York Center
09:53AM 40.1945 -73.0290 128° Southeast  Level FlightAware Approximate
09:53AM 40.4281 -73.4975 117° Southeast 346 398 11,900  Level New York Center
09:54AM 40.1162 -72.8988 128° Southeast  Level FlightAware Approximate
09:54AM 40.3808 -73.3786 118° Southeast 390 449 14,400  Level New York Center
09:55AM 40.3194 -73.2319 119° Southeast 413 475 16,900 2,160 Climbing New York Center
09:56AM 40.2631 -73.1375 128° Southeast 420 483 18,800 1,860 Climbing New York Center
09:57AM 40.1844 -73.0069 128° Southeast 415 478 20,600 1,740 Climbing New York Center
09:58AM 40.1117 -72.8825 127° Southeast 426 490 22,300 1,200 Climbing New York Center
09:59AM 40.0367 -72.7556 128° Southeast 432 497 23,100 1,020 Climbing New York Center
10:00AM 39.9575 -72.6258 129° Southeast 443 510 24,400 1,260 Climbing New York Center
10:01AM 39.8806 -72.4914 127° Southeast 455 524 25,700 1,380 Climbing New York Center
10:02AM 39.7969 -72.3569 129° Southeast 468 539 27,200 1,320 Climbing New York Center
10:03AM 39.7175 -72.2200 127° Southeast 473 544 28,400 1,260 Climbing New York Center
10:04AM 39.6056 -72.1772 164° South 426 490 29,700 1,200 Climbing New York Center
10:05AM 39.4928 -72.1939 187° South 392 451 30,800 1,020 Climbing New York Center
10:06AM 39.3758 -72.2022 183° South 405 466 31,800 960 Climbing New York Center
10:07AM 39.2631 -72.2106 183° South 410 472 32,800 960 Climbing New York Center
10:08AM 39.1483 -72.2217 184° South 415 478 33,700 780 Climbing New York Center
10:09AM 39.0314 -72.2325 184° South 415 478 34,400 600 Climbing New York Center
10:10AM 38.9189 -72.2383 182° South 421 484 35,000 240 Climbing New York Center
10:11AM 38.7997 -72.2492 184° South 421 484 35,000  Level New York Center
10:12AM 38.6828 -72.2597 184° South 421 484 35,000  Level New York Center
10:13AM 38.5661 -72.2628 181° South 421 484 35,000  Level New York Center
10:14AM 38.4511 -72.2708 183° South 421 484 35,000  Level New York Center
10:15AM 38.3322 -72.2842 185° South 426 490 35,000  Level New York Center
10:16AM 38.2153 -72.2897 182° South 426 490 35,000  Level New York Center
10:17AM 38.0964 -72.2978 183° South 426 490 35,000  Level New York Center
10:18AM 37.9772 -72.3164 187° South 426 490 35,000  Level New York Center
10:19AM 37.8561 -72.3217 182° South 426 490 35,000  Level New York Center
10:20AM 37.7372 -72.3192 179° South 428 493 35,000  Level New York Center
10:21AM 37.6036 -72.3344 185° South 433 498 35,000  Level New York Center
10:22AM 37.5075 -72.3431 184° South 428 493 35,000  Level New York Center
10:23AM 37.3781 -72.3533 184° South 434 499 35,000  Level New York Center
10:24AM 37.2528 -72.3611 183° South 434 499 35,000  Level New York Center
10:25AM 37.1294 -72.3686 183° South 445 512 35,000  Level New York Center
10:26AM 37.0125 -72.3792 184° South 445 512 35,000  Level New York Center
10:27AM 36.8956 -72.3869 183° South 434 499 35,000  Level New York Center
10:28AM 36.7703 -72.3947 183° South 440 506 35,000  Level New York Center
10:29AM 36.6453 -72.3972 181° South 447 514 35,000  Level New York Center
10:30AM 36.5178 -72.3994 181° South 447 514 35,000  Level New York Center
10:31AM 36.3969 -72.3994 180° South 454 522 35,000  Level New York Center
10:32AM 36.2758 -72.3994 180° South 454 522 35,000  Level New York Center
10:33AM 36.1547 -72.4019 181° South 449 517 35,000  Level New York Center
10:34AM 36.0317 -72.4044 181° South 449 517 35,000  Level New York Center
10:35AM 35.9086 -72.4044 180° South 437 503 35,000  Level New York Center
10:36AM 35.7875 -72.4069 181° South 437 503 35,000  Level New York Center
10:37AM 35.6686 -72.4069 180° South 437 503 35,000  Level New York Center
10:38AM 35.5414 -72.4067 180° South 437 503 35,000  Level New York Center
10:39AM 35.4203 -72.4067 180° South 437 503 35,000  Level New York Center
10:40AM 35.2953 -72.4064 180° South 449 517 35,000  Level New York Center
10:41AM 35.1681 -72.4089 181° South 456 525 35,000  Level New York Center
10:42AM 35.0450 -72.4089 180° South 458 527 35,000  Level New York Center
10:43AM 34.9153 -72.4161 183° South 458 527 35,000  Level New York Center
10:45AM 34.7010 -72.3653 176° South  Level FlightAware Approximate
10:46AM 35.0500 -72.4167 175° South 478 550 35,000  Level New York Oceanic (ODAPS)
10:52AM 33.8332 -72.2622 167° South  Level FlightAware Approximate
10:53AM 33.5928 -72.1934 167° South 478 550 35,000  Level FlightAware Transoceanic
10:54AM 33.4626 -72.1581 167° South 478 550 35,000  Level FlightAware Transoceanic
10:55AM 33.3324 -72.1229 167° South 478 550 35,000  Level FlightAware Transoceanic
10:56AM 33.2022 -72.0878 167° South 478 550 35,000  Level FlightAware Transoceanic
10:57AM 33.0720 -72.0528 167° South 478 550 35,000  Level FlightAware Transoceanic
10:58AM 32.9417 -72.0179 167° South 478 550 35,000  Level FlightAware Transoceanic
10:59AM 32.8115 -71.9831 167° South 478 550 35,000  Level FlightAware Transoceanic
11:00AM 32.6812 -71.9484 167° South 478 550 35,000  Level FlightAware Transoceanic
11:01AM 32.5510 -71.9138 167° South 478 550 35,000  Level FlightAware Transoceanic
11:02AM 32.4207 -71.8793 167° South 478 550 35,000  Level FlightAware Transoceanic
11:03AM 32.2904 -71.8450 167° South 478 550 35,000  Level FlightAware Transoceanic
11:04AM 32.1601 -71.8107 167° South 478 550 35,000  Level FlightAware Transoceanic
11:05AM 32.0298 -71.7765 167° South 478 550 35,000  Level FlightAware Transoceanic
11:05AM 32.0500 -71.7833 167° South 444 511 35,000  Level New York Oceanic (ODAPS)
11:06AM 31.8995 -71.7424 167° South 478 550 35,000  Level FlightAware Transoceanic
11:07AM 31.7692 -71.7084 168° South 478 550 35,000  Level FlightAware Transoceanic
11:08AM 31.6389 -71.6745 168° South 478 550 35,000  Level FlightAware Transoceanic
11:09AM 31.5085 -71.6407 168° South 478 550 35,000  Level FlightAware Transoceanic
11:10AM 31.3782 -71.6069 168° South 478 550 35,000  Level FlightAware Transoceanic
11:11AM 31.0813 -71.5316 168° South 444 511 35,000  Level FlightAware Transoceanic
11:12AM 30.9602 -71.5005 168° South 444 511 35,000  Level FlightAware Transoceanic
11:13AM 30.8390 -71.4695 168° South 444 511 35,000  Level FlightAware Transoceanic
11:14AM 30.7179 -71.4385 168° South 444 511 35,000  Level FlightAware Transoceanic
11:15AM 30.5968 -71.4077 168° South 444 511 35,000  Level FlightAware Transoceanic
11:16AM 30.4756 -71.3769 168° South 444 511 35,000  Level FlightAware Transoceanic
11:17AM 30.3545 -71.3462 168° South 444 511 35,000  Level FlightAware Transoceanic
11:18AM 30.2333 -71.3155 168° South 444 511 35,000  Level FlightAware Transoceanic
11:19AM 30.1121 -71.2849 168° South 444 511 35,000  Level FlightAware Transoceanic
11:20AM 29.9909 -71.2544 168° South 444 511 35,000  Level FlightAware Transoceanic
11:21AM 29.8697 -71.2240 168° South 444 511 35,000  Level FlightAware Transoceanic
11:22AM 29.7486 -71.1937 168° South 444 511 35,000  Level FlightAware Transoceanic
11:23AM 29.6273 -71.1634 168° South 444 511 35,000  Level FlightAware Transoceanic
11:24AM 29.5061 -71.1332 168° South 444 511 35,000  Level FlightAware Transoceanic
11:25AM 29.3849 -71.1031 168° South 444 511 35,000  Level FlightAware Transoceanic
11:26AM 29.2637 -71.0731 168° South 444 511 35,000  Level FlightAware Transoceanic
11:27AM 29.1425 -71.0431 168° South 444 511 35,000  Level FlightAware Transoceanic
11:28AM 29.0212 -71.0132 168° South 444 511 35,000  Level FlightAware Transoceanic
11:29AM 28.9000 -70.9833 168° South 444 511 35,000  Level FlightAware Transoceanic
11:30AM 28.7656 -70.9500 168° South 444 511 35,000  Level FlightAware Transoceanic
11:31AM 28.6312 -70.9168 168° South 444 511 35,000  Level FlightAware Transoceanic
11:32AM 28.4968 -70.8837 168° South 444 511 35,000  Level FlightAware Transoceanic
11:33AM 28.3624 -70.8506 168° South 444 511 35,000  Level FlightAware Transoceanic
11:34AM 28.2280 -70.8177 168° South 444 511 35,000  Level FlightAware Transoceanic
11:35AM 28.0936 -70.7848 168° South 444 511 35,000  Level FlightAware Transoceanic
11:35AM 28.9000 -70.9833 168° South 493 567 35,000  Level New York Oceanic (ODAPS)
11:36AM 27.9592 -70.7520 168° South 444 511 35,000  Level FlightAware Transoceanic
11:37AM 27.8248 -70.7193 168° South 444 511 35,000  Level FlightAware Transoceanic
11:38AM 27.6903 -70.6867 168° South 444 511 35,000  Level FlightAware Transoceanic
11:39AM 27.5559 -70.6541 168° South 444 511 35,000  Level FlightAware Transoceanic
11:40AM 27.4214 -70.6216 168° South 444 511 35,000  Level FlightAware Transoceanic
11:41AM 27.2870 -70.5892 168° South 493 567 35,000  Level FlightAware Transoceanic
11:42AM 27.1525 -70.5569 168° South 493 567 35,000  Level FlightAware Transoceanic
11:43AM 27.0180 -70.5247 168° South 493 567 35,000  Level FlightAware Transoceanic
11:44AM 26.8835 -70.4925 168° South 493 567 35,000  Level FlightAware Transoceanic
11:45AM 26.7490 -70.4604 168° South 493 567 35,000  Level FlightAware Transoceanic
11:46AM 26.6145 -70.4284 168° South 493 567 35,000  Level FlightAware Transoceanic
11:47AM 26.4800 -70.3965 168° South 493 567 35,000  Level FlightAware Transoceanic
11:48AM 26.3455 -70.3646 168° South 493 567 35,000  Level FlightAware Transoceanic
11:49AM 26.2110 -70.3328 168° South 493 567 35,000  Level FlightAware Transoceanic
11:50AM 26.0765 -70.3011 168° South 493 567 35,000  Level FlightAware Transoceanic
11:51AM 25.9419 -70.2695 168° South 493 567 35,000  Level FlightAware Transoceanic
11:52AM 25.8074 -70.2379 168° South 493 567 35,000  Level FlightAware Transoceanic
11:53AM 25.6728 -70.2064 168° South 493 567 35,000  Level FlightAware Transoceanic
11:54AM 25.5383 -70.1750 168° South 493 567 35,000  Level FlightAware Transoceanic
11:55AM 25.4037 -70.1436 168° South 493 567 35,000  Level FlightAware Transoceanic
11:55AM 25.3856 -70.1544 176° South 449 517 35,000  Level Miami Center
11:56AM 25.2692 -70.1124 168° South 493 567 35,000  Level FlightAware Transoceanic
11:56AM 25.2528 -70.1297 170° South 464 534 35,000  Level Miami Center
11:57AM 25.1346 -70.0811 168° South 493 567 35,000  Level FlightAware Transoceanic
11:57AM 25.1156 -70.0958 167° South 488 562 35,000  Level Miami Center
11:58AM 25.0000 -70.0500 176° South 493 567 35,000  Level FlightAware Transoceanic
11:58AM 24.9803 -70.0531 164° South 502 578 35,000  Level Miami Center
11:59AM 24.8594 -70.0405 176° South 493 567 35,000  Level FlightAware Transoceanic
11:59AM 24.8444 -70.0514 179° South 490 564 35,000  Level Miami Center
12:00PM 24.7188 -70.0310 176° South 493 567 35,000  Level FlightAware Transoceanic
12:00PM 24.7056 -70.0728 188° South 497 572 35,000  Level Miami Center
12:01PM 24.5853 -70.0864 186° South 497 572 35,000  Level Miami Center
12:02PM 24.4486 -70.1119 190° South 497 572 35,000  Level Miami Center
12:03PM 24.3100 -70.1333 188° South 497 572 35,000  Level Miami Center
12:04PM 24.1756 -70.1608 191° South 497 572 35,000  Level Miami Center
12:05PM 24.0367 -70.1842 189° South 503 579 35,000  Level Miami Center
12:06PM 23.9044 -70.2094 190° South 498 573 35,000  Level Miami Center
12:07PM 23.7678 -70.2325 189° South 498 573 35,000  Level Miami Center
12:08PM 23.6308 -70.2533 188° South 498 573 35,000  Level Miami Center
12:09PM 23.4942 -70.2761 189° South 498 573 35,000  Level Miami Center
12:11PM 23.2272 -70.3261 190° South 498 573 35,000  Level Miami Center
12:12PM 23.0925 -70.3486 189° South 498 573 35,000  Level Miami Center
12:13PM 22.9622 -70.3711 189° South 498 573 35,000  Level Miami Center
12:14PM 22.8253 -70.3914 188° South 498 573 35,000  Level Miami Center
12:15PM 22.6906 -70.4139 189° South 498 573 35,000  Level Miami Center
12:16PM 22.5561 -70.4383 190° South 498 573 35,000  Level Miami Center
12:17PM 22.4236 -70.4583 188° South 498 573 35,000  Level Miami Center
12:18PM 22.2889 -70.4828 190° South 498 573 35,000  Level Miami Center
12:19PM 22.1522 -70.5053 189° South 498 573 35,000  Level Miami Center
12:20PM 22.0197 -70.5294 190° South 498 573 35,000  Level Miami Center
12:21PM 21.8872 -70.5514 189° South 498 573 35,000  Level Miami Center
12:22PM 21.7525 -70.5733 189° South 498 573 35,000  Level Miami Center
12:23PM 21.6200 -70.5953 189° South 498 573 35,000  Level Miami Center
12:24PM 21.4894 -70.6169 189° South 486 559 35,000  Level Miami Center
12:25PM 21.3569 -70.6386 189° South 486 559 35,000  Level Miami Center
12:26PM 21.2244 -70.6625 190° South 486 559 35,000  Level Miami Center
12:27PM 21.0817 -70.6869 189° South 486 559 35,000  Level Miami Center
12:28PM 20.9489 -70.7083 189° South 486 559 35,000  Level Miami Center
12:29PM 20.8167 -70.7322 190° South 481 554 35,000  Level Miami Center
12:30PM 20.6836 -70.7469 186° South 486 559 35,000  Level Miami Center
12:31PM 20.5583 -70.6861 156° South 471 542 35,000  Level Miami Center
12:32PM 20.4347 -70.6144 151° Southeast 487 560 35,000  Level Miami Center
12:33PM 20.3128 -70.5403 150° Southeast 492 566 35,000  Level Miami Center
12:35PM 20.1077 -70.4443 156° South  Level Estimated
12:42PM 19.2867 -70.0627 156° South  Level Estimated
12:43PM 19.1693 -70.0086 156° South  Level Estimated
12:44PM 19.0519 -69.9544 156° South  Level Estimated
12:45PM 18.9346 -69.9004 156° South  Level Estimated
12:46PM 18.8172 -69.8464 156° South  Level Estimated
12:47PM 18.6998 -69.7926 157° South  Level Estimated
12:48PM 18.5823 -69.7387 157° South  Level Estimated
12:49PM 18.4649 -69.6850 157° South  Level Estimated
12:50PM 18.4297 -69.6689 157° South  Level Estimated
12:51PM 18.4297 -69.6689 50° Northeast  Level Estimated
12:52PM 18.4297 -69.6689 50° Northeast  Level Estimated
12:53PM 18.4297 -69.6689 50° Northeast  Level Estimated
12:54PM 18.4297 -69.6689 50° Northeast  Level Estimated
12:55PM 18.4297 -69.6689 50° Northeast  Level Estimated
12:56PM 18.4297 -69.6689 50° Northeast  Level Estimated